sensor_id;sensor_type;location;lat;lon;timestamp;pressure;altitude;pressure_sealevel;temperature;humidity
56504;BME280;48812;51.606;-0.114;2023-04-08T00:00:06;101740.59;;;16.89;54.60
56504;BME280;48812;51.606;-0.114;2023-04-08T00:02:45;101742.38;;;16.90;54.71
56504;BME280;48812;51.606;-0.114;2023-04-08T00:05:19;101738.88;;;16.88;54.52
56504;BME280;48812;51.606;-0.114;2023-04-08T00:07:56;101745.06;;;16.89;54.82
56504;BME280;48812;51.606;-0.114;2023-04-08T00:10:28;101742.44;;;16.87;54.80
56504;BME280;48812;51.606;-0.114;2023-04-08T00:13:02;101743.38;;;16.86;54.41
56504;BME280;48812;51.606;-0.114;2023-04-08T00:15:35;101743.44;;;16.85;54.80
56504;BME280;48812;51.606;-0.114;2023-04-08T00:18:08;101744.31;;;16.85;54.55
56504;BME280;48812;51.606;-0.114;2023-04-08T00:20:42;101740.81;;;16.83;54.78
56504;BME280;48812;51.606;-0.114;2023-04-08T00:23:17;101740.81;;;16.83;54.44
56504;BME280;48812;51.606;-0.114;2023-04-08T00:25:49;101737.28;;;16.81;54.52
56504;BME280;48812;51.606;-0.114;2023-04-08T00:28:23;101736.41;;;16.81;54.83
56504;BME280;48812;51.606;-0.114;2023-04-08T00:31:00;101733.78;;;16.79;54.81
56504;BME280;48812;51.606;-0.114;2023-04-08T00:33:35;101727.56;;;16.78;54.75
56504;BME280;48812;51.606;-0.114;2023-04-08T00:36:08;101739.13;;;16.79;54.87
56504;BME280;48812;51.606;-0.114;2023-04-08T00:38:40;101737.41;;;16.78;54.20
56504;BME280;48812;51.606;-0.114;2023-04-08T00:41:15;101732.97;;;16.77;54.53
56504;BME280;48812;51.606;-0.114;2023-04-08T00:43:54;101738.34;;;16.75;55.11
56504;BME280;48812;51.606;-0.114;2023-04-08T00:46:38;101731.25;;;16.74;54.97
56504;BME280;48812;51.606;-0.114;2023-04-08T00:49:16;101736.63;;;16.73;55.14
56504;BME280;48812;51.606;-0.114;2023-04-08T00:51:50;101739.28;;;16.73;54.50
56504;BME280;48812;51.606;-0.114;2023-04-08T00:54:26;101732.22;;;16.72;54.43
56504;BME280;48812;51.606;-0.114;2023-04-08T00:57:04;101736.69;;;16.71;54.55
56504;BME280;48812;51.606;-0.114;2023-04-08T00:59:39;101726.97;;;16.69;54.75
56504;BME280;48812;51.606;-0.114;2023-04-08T01:02:31;101731.44;;;16.68;54.81
56504;BME280;48812;51.606;-0.114;2023-04-08T01:05:14;101728.81;;;16.67;55.04
56504;BME280;48812;51.606;-0.114;2023-04-08T01:07:53;101728.81;;;16.67;54.33
56504;BME280;48812;51.606;-0.114;2023-04-08T01:10:35;101731.53;;;16.65;54.75
56504;BME280;48812;51.606;-0.114;2023-04-08T01:13:11;101730.63;;;16.65;54.52
56504;BME280;48812;51.606;-0.114;2023-04-08T01:15:44;101729.75;;;16.64;54.91
56504;BME280;48812;51.606;-0.114;2023-04-08T01:18:18;101727.13;;;16.63;55.25
56504;BME280;48812;51.606;-0.114;2023-04-08T01:20:53;101729.78;;;16.63;54.89
56504;BME280;48812;51.606;-0.114;2023-04-08T01:23:32;101738.78;;;16.60;55.17
56504;BME280;48812;51.606;-0.114;2023-04-08T01:26:10;101728.97;;;16.61;55.01
56504;BME280;48812;51.606;-0.114;2023-04-08T01:28:46;101732.56;;;16.59;55.19
56504;BME280;48812;51.606;-0.114;2023-04-08T01:31:23;101738.81;;;16.58;54.36
56504;BME280;48812;51.606;-0.114;2023-04-08T01:33:56;101736.16;;;16.58;55.17
56504;BME280;48812;51.606;-0.114;2023-04-08T01:36:36;101741.50;;;16.58;55.33
56504;BME280;48812;51.606;-0.114;2023-04-08T01:39:10;101734.44;;;16.56;54.66
56504;BME280;48812;51.606;-0.114;2023-04-08T01:41:47;101741.59;;;16.55;55.08
56504;BME280;48812;51.606;-0.114;2023-04-08T01:44:21;101736.25;;;16.55;54.80
56504;BME280;48812;51.606;-0.114;2023-04-08T01:46:58;101735.38;;;16.55;55.10
56504;BME280;48812;51.606;-0.114;2023-04-08T01:49:33;101733.63;;;16.54;54.84
56504;BME280;48812;51.606;-0.114;2023-04-08T01:52:08;101742.53;;;16.53;54.69
56504;BME280;48812;51.606;-0.114;2023-04-08T01:54:42;101744.34;;;16.52;54.67
56504;BME280;48812;51.606;-0.114;2023-04-08T01:57:22;101742.59;;;16.50;54.38
56504;BME280;48812;51.606;-0.114;2023-04-08T02:00:00;101739.94;;;16.50;54.88
56504;BME280;48812;51.606;-0.114;2023-04-08T02:02:52;101741.75;;;16.49;55.04
56504;BME280;48812;51.606;-0.114;2023-04-08T02:05:26;101744.41;;;16.49;55.19
56504;BME280;48812;51.606;-0.114;2023-04-08T02:08:01;101738.25;;;16.47;55.06
56504;BME280;48812;51.606;-0.114;2023-04-08T02:10:33;101743.59;;;16.47;55.08
56504;BME280;48812;51.606;-0.114;2023-04-08T02:13:09;101739.16;;;16.46;54.94
56504;BME280;48812;51.606;-0.114;2023-04-08T02:15:51;101737.41;;;16.45;54.90
56504;BME280;48812;51.606;-0.114;2023-04-08T02:18:26;101735.69;;;16.43;55.34
56504;BME280;48812;51.606;-0.114;2023-04-08T02:21:13;101734.84;;;16.42;54.82
56504;BME280;48812;51.606;-0.114;2023-04-08T02:23:56;101733.06;;;16.41;54.80
56504;BME280;48812;51.606;-0.114;2023-04-08T02:26:35;101732.16;;;16.42;54.54
56504;BME280;48812;51.606;-0.114;2023-04-08T02:29:11;101724.22;;;16.39;55.18
56504;BME280;48812;51.606;-0.114;2023-04-08T02:31:50;101738.44;;;16.39;55.05
56504;BME280;48812;51.606;-0.114;2023-04-08T02:39:51;101732.38;;;16.34;54.73
56504;BME280;48812;51.606;-0.114;2023-04-08T02:43:44;101742.22;;;16.32;54.58
56504;BME280;48812;51.606;-0.114;2023-04-08T02:47:50;101747.53;;;16.32;55.11
56504;BME280;48812;51.606;-0.114;2023-04-08T02:51:28;101752.09;;;16.29;54.96
56504;BME280;48812;51.606;-0.114;2023-04-08T02:55:02;101755.66;;;16.28;54.78
56504;BME280;48812;51.606;-0.114;2023-04-08T03:02:07;101764.63;;;16.25;54.84
56504;BME280;48812;51.606;-0.114;2023-04-08T03:05:35;101759.31;;;16.23;55.14
56504;BME280;48812;51.606;-0.114;2023-04-08T03:09:19;101762.88;;;16.24;54.98
56504;BME280;48812;51.606;-0.114;2023-04-08T03:11:52;101758.50;;;16.21;54.85
56504;BME280;48812;51.606;-0.114;2023-04-08T03:14:26;101756.78;;;16.19;54.99
56504;BME280;48812;51.606;-0.114;2023-04-08T03:17:01;101766.53;;;16.20;54.93
56504;BME280;48812;51.606;-0.114;2023-04-08T03:19:36;101759.47;;;16.19;55.08
56504;BME280;48812;51.606;-0.114;2023-04-08T03:22:12;101764.81;;;16.19;54.90
56504;BME280;48812;51.606;-0.114;2023-04-08T03:24:47;101765.75;;;16.16;54.53
56504;BME280;48812;51.606;-0.114;2023-04-08T03:27:22;101772.84;;;16.17;54.91
56504;BME280;48812;51.606;-0.114;2023-04-08T03:30:05;101777.31;;;16.15;55.27
56504;BME280;48812;51.606;-0.114;2023-04-08T03:32:37;101768.44;;;16.15;54.65
56504;BME280;48812;51.606;-0.114;2023-04-08T03:35:13;101780.09;;;16.12;54.92
56504;BME280;48812;51.606;-0.114;2023-04-08T03:37:45;101780.09;;;16.12;54.87
56504;BME280;48812;51.606;-0.114;2023-04-08T03:40:25;101779.22;;;16.10;54.84
56504;BME280;48812;51.606;-0.114;2023-04-08T03:43:01;101784.56;;;16.10;54.78
56504;BME280;48812;51.606;-0.114;2023-04-08T03:45:33;101793.50;;;16.09;54.98
56504;BME280;48812;51.606;-0.114;2023-04-08T03:48:06;101793.50;;;16.08;55.04
56504;BME280;48812;51.606;-0.114;2023-04-08T03:50:39;101792.59;;;16.07;54.99
56504;BME280;48812;51.606;-0.114;2023-04-08T03:53:11;101799.75;;;16.07;55.10
56504;BME280;48812;51.606;-0.114;2023-04-08T03:55:45;101798.91;;;16.04;54.79
56504;BME280;48812;51.606;-0.114;2023-04-08T03:58:19;101798.03;;;16.04;54.95
56504;BME280;48812;51.606;-0.114;2023-04-08T04:00:52;101803.38;;;16.04;54.97
56504;BME280;48812;51.606;-0.114;2023-04-08T04:03:28;101812.28;;;16.03;54.83
56504;BME280;48812;51.606;-0.114;2023-04-08T04:06:06;101803.44;;;16.01;54.78
56504;BME280;48812;51.606;-0.114;2023-04-08T04:08:38;101813.22;;;16.00;55.02
56504;BME280;48812;51.606;-0.114;2023-04-08T04:11:11;101801.69;;;16.00;54.99
56504;BME280;48812;51.606;-0.114;2023-04-08T04:13:46;101804.38;;;15.98;55.17
56504;BME280;48812;51.606;-0.114;2023-04-08T04:16:20;101811.53;;;15.98;54.59
56504;BME280;48812;51.606;-0.114;2023-04-08T04:18:53;101809.72;;;15.98;54.85
56504;BME280;48812;51.606;-0.114;2023-04-08T04:21:27;101800.91;;;15.96;54.86
56504;BME280;48812;51.606;-0.114;2023-04-08T04:24:01;101806.25;;;15.95;54.56
56504;BME280;48812;51.606;-0.114;2023-04-08T04:26:34;101810.69;;;15.96;54.96
56504;BME280;48812;51.606;-0.114;2023-04-08T04:29:09;101809.84;;;15.94;55.03
56504;BME280;48812;51.606;-0.114;2023-04-08T04:31:41;101808.06;;;15.94;54.96
56504;BME280;48812;51.606;-0.114;2023-04-08T04:34:14;101811.69;;;15.90;54.62
56504;BME280;48812;51.606;-0.114;2023-04-08T04:36:47;101810.84;;;15.90;54.69
56504;BME280;48812;51.606;-0.114;2023-04-08T04:39:19;101809.06;;;15.89;54.69
56504;BME280;48812;51.606;-0.114;2023-04-08T04:41:54;101819.75;;;15.89;54.72
56504;BME280;48812;51.606;-0.114;2023-04-08T04:44:27;101824.19;;;15.88;55.02
56504;BME280;48812;51.606;-0.114;2023-04-08T04:47:00;101818.06;;;15.84;54.84
56504;BME280;48812;51.606;-0.114;2023-04-08T04:49:34;101823.41;;;15.84;54.98
56504;BME280;48812;51.606;-0.114;2023-04-08T04:52:07;101822.47;;;15.85;54.84
56504;BME280;48812;51.606;-0.114;2023-04-08T04:54:42;101826.97;;;15.83;54.49
56504;BME280;48812;51.606;-0.114;2023-04-08T04:57:14;101824.34;;;15.82;55.04
56504;BME280;48812;51.606;-0.114;2023-04-08T04:59:47;101822.53;;;15.82;54.78
56504;BME280;48812;51.606;-0.114;2023-04-08T05:02:22;101827.03;;;15.80;54.59
56504;BME280;48812;51.606;-0.114;2023-04-08T05:04:55;101825.31;;;15.79;54.59
56504;BME280;48812;51.606;-0.114;2023-04-08T05:07:35;101831.53;;;15.78;54.77
56504;BME280;48812;51.606;-0.114;2023-04-08T05:10:11;101837.75;;;15.79;54.71
56504;BME280;48812;51.606;-0.114;2023-04-08T05:12:44;101836.91;;;15.77;54.77
56504;BME280;48812;51.606;-0.114;2023-04-08T05:15:18;101835.13;;;15.76;54.43
56504;BME280;48812;51.606;-0.114;2023-04-08T05:17:51;101839.59;;;15.75;54.79
56504;BME280;48812;51.606;-0.114;2023-04-08T05:20:24;101840.50;;;15.74;54.49
56504;BME280;48812;51.606;-0.114;2023-04-08T05:22:59;101841.44;;;15.73;54.48
56504;BME280;48812;51.606;-0.114;2023-04-08T05:25:44;101840.56;;;15.73;54.64
56504;BME280;48812;51.606;-0.114;2023-04-08T05:28:44;101849.44;;;15.73;54.46
56504;BME280;48812;51.606;-0.114;2023-04-08T05:36:40;101862.84;;;15.70;54.76
56504;BME280;48812;51.606;-0.114;2023-04-08T05:39:59;101867.41;;;15.65;54.44
56504;BME280;48812;51.606;-0.114;2023-04-08T05:43:51;101865.56;;;15.67;54.91
56504;BME280;48812;51.606;-0.114;2023-04-08T05:47:18;101872.72;;;15.65;54.63
56504;BME280;48812;51.606;-0.114;2023-04-08T05:50:48;101870.06;;;15.65;54.62
56504;BME280;48812;51.606;-0.114;2023-04-08T05:54:33;101877.22;;;15.63;54.49
56504;BME280;48812;51.606;-0.114;2023-04-08T05:58:03;101883.44;;;15.62;54.54
56504;BME280;48812;51.606;-0.114;2023-04-08T06:01:39;101880.81;;;15.60;54.65
56504;BME280;48812;51.606;-0.114;2023-04-08T06:05:38;101886.19;;;15.59;54.42
56504;BME280;48812;51.606;-0.114;2023-04-08T06:08:50;101889.75;;;15.58;54.58
56504;BME280;48812;51.606;-0.114;2023-04-08T06:12:33;101887.16;;;15.55;54.57
56504;BME280;48812;51.606;-0.114;2023-04-08T06:15:57;101901.34;;;15.57;54.73
56504;BME280;48812;51.606;-0.114;2023-04-08T06:19:35;101895.16;;;15.55;54.38
56504;BME280;48812;51.606;-0.114;2023-04-08T06:22:08;101898.69;;;15.55;54.93
56504;BME280;48812;51.606;-0.114;2023-04-08T06:24:40;101901.41;;;15.54;54.62
56504;BME280;48812;51.606;-0.114;2023-04-08T06:27:13;101896.94;;;15.54;54.67
56504;BME280;48812;51.606;-0.114;2023-04-08T06:29:46;101902.28;;;15.53;54.54
56504;BME280;48812;51.606;-0.114;2023-04-08T06:32:18;101903.22;;;15.52;54.74
56504;BME280;48812;51.606;-0.114;2023-04-08T06:34:52;101900.56;;;15.52;54.58
56504;BME280;48812;51.606;-0.114;2023-04-08T06:37:26;101903.19;;;15.53;54.32
56504;BME280;48812;51.606;-0.114;2023-04-08T06:40:02;101912.09;;;15.52;54.61
56504;BME280;48812;51.606;-0.114;2023-04-08T06:42:39;101916.56;;;15.52;54.41
56504;BME280;48812;51.606;-0.114;2023-04-08T06:45:46;101909.44;;;15.51;54.29
56504;BME280;48812;51.606;-0.114;2023-04-08T06:48:19;101920.09;;;15.52;54.80
56504;BME280;48812;51.606;-0.114;2023-04-08T06:50:59;101917.44;;;15.51;54.62
56504;BME280;48812;51.606;-0.114;2023-04-08T06:53:31;101920.97;;;15.51;54.60
56504;BME280;48812;51.606;-0.114;2023-04-08T06:56:08;101924.53;;;15.52;54.56
56504;BME280;48812;51.606;-0.114;2023-04-08T06:58:41;101919.25;;;15.50;54.91
56504;BME280;48812;51.606;-0.114;2023-04-08T07:01:13;101916.59;;;15.48;54.37
56504;BME280;48812;51.606;-0.114;2023-04-08T07:03:47;101913.00;;;15.49;54.36
56504;BME280;48812;51.606;-0.114;2023-04-08T07:06:20;101910.41;;;15.48;54.78
56504;BME280;48812;51.606;-0.114;2023-04-08T07:08:53;101923.69;;;15.49;54.85
56504;BME280;48812;51.606;-0.114;2023-04-08T07:11:27;101927.28;;;15.48;54.19
56504;BME280;48812;51.606;-0.114;2023-04-08T07:14:01;101932.59;;;15.48;54.39
56504;BME280;48812;51.606;-0.114;2023-04-08T07:16:34;101928.16;;;15.47;54.72
56504;BME280;48812;51.606;-0.114;2023-04-08T07:19:08;101934.41;;;15.48;54.49
56504;BME280;48812;51.606;-0.114;2023-04-08T07:21:42;101948.59;;;15.48;54.46
56504;BME280;48812;51.606;-0.114;2023-04-08T07:24:17;101947.72;;;15.48;54.70
56504;BME280;48812;51.606;-0.114;2023-04-08T07:26:59;101956.63;;;15.47;54.60
56504;BME280;48812;51.606;-0.114;2023-04-08T07:29:36;101953.94;;;15.47;54.29
56504;BME280;48812;51.606;-0.114;2023-04-08T07:32:12;101951.28;;;15.47;54.39
56504;BME280;48812;51.606;-0.114;2023-04-08T07:34:48;101952.16;;;15.47;54.47
56504;BME280;48812;51.606;-0.114;2023-04-08T07:37:25;101947.75;;;15.46;54.48
56504;BME280;48812;51.606;-0.114;2023-04-08T07:39:59;101955.75;;;15.46;54.93
56504;BME280;48812;51.606;-0.114;2023-04-08T07:42:32;101956.63;;;15.47;54.68
56504;BME280;48812;51.606;-0.114;2023-04-08T07:45:05;101956.59;;;15.48;54.75
56504;BME280;48812;51.606;-0.114;2023-04-08T07:47:38;101957.47;;;15.49;54.46
56504;BME280;48812;51.606;-0.114;2023-04-08T07:50:11;101961.00;;;15.49;54.75
56504;BME280;48812;51.606;-0.114;2023-04-08T07:52:43;101974.31;;;15.49;54.93
56504;BME280;48812;51.606;-0.114;2023-04-08T07:55:18;101970.78;;;15.49;54.44
56504;BME280;48812;51.606;-0.114;2023-04-08T07:57:53;101967.22;;;15.50;54.30
56504;BME280;48812;51.606;-0.114;2023-04-08T08:00:26;101966.31;;;15.49;54.56
56504;BME280;48812;51.606;-0.114;2023-04-08T08:03:01;101959.25;;;15.48;54.72
56504;BME280;48812;51.606;-0.114;2023-04-08T08:05:37;101960.09;;;15.51;54.59
56504;BME280;48812;51.606;-0.114;2023-04-08T08:08:13;101975.19;;;15.52;54.94
56504;BME280;48812;51.606;-0.114;2023-04-08T08:10:46;101980.53;;;15.52;54.82
56504;BME280;48812;51.606;-0.114;2023-04-08T08:13:20;101979.59;;;15.53;54.80
56504;BME280;48812;51.606;-0.114;2023-04-08T08:15:53;101977.84;;;15.53;54.59
56504;BME280;48812;51.606;-0.114;2023-04-08T08:18:31;101980.47;;;15.55;54.46
56504;BME280;48812;51.606;-0.114;2023-04-08T08:21:07;101979.53;;;15.56;54.54
56504;BME280;48812;51.606;-0.114;2023-04-08T08:23:44;101982.22;;;15.56;54.55
56504;BME280;48812;51.606;-0.114;2023-04-08T08:26:16;101984.88;;;15.56;54.87
56504;BME280;48812;51.606;-0.114;2023-04-08T08:28:49;101982.22;;;15.54;54.43
56504;BME280;48812;51.606;-0.114;2023-04-08T08:31:21;101994.59;;;15.58;54.48
56504;BME280;48812;51.606;-0.114;2023-04-08T08:33:56;101992.81;;;15.59;54.50
56504;BME280;48812;51.606;-0.114;2023-04-08T08:36:30;101994.59;;;15.60;54.58
56504;BME280;48812;51.606;-0.114;2023-04-08T08:39:05;101993.66;;;15.61;54.48
56504;BME280;48812;51.606;-0.114;2023-04-08T08:41:38;101991.88;;;15.61;54.69
56504;BME280;48812;51.606;-0.114;2023-04-08T08:44:15;101995.41;;;15.63;54.78
56504;BME280;48812;51.606;-0.114;2023-04-08T08:46:49;101998.94;;;15.64;54.94
56504;BME280;48812;51.606;-0.114;2023-04-08T08:49:21;101996.25;;;15.64;54.86
56504;BME280;48812;51.606;-0.114;2023-04-08T08:51:58;101991.84;;;15.63;54.81
56504;BME280;48812;51.606;-0.114;2023-04-08T08:55:36;101990.94;;;15.64;54.57
56504;BME280;48812;51.606;-0.114;2023-04-08T08:59:32;102008.63;;;15.68;54.54
56504;BME280;48812;51.606;-0.114;2023-04-08T09:07:36;102005.03;;;15.69;54.62
56504;BME280;48812;51.606;-0.114;2023-04-08T09:10:25;102000.63;;;15.70;54.77
56504;BME280;48812;51.606;-0.114;2023-04-08T09:13:41;101994.38;;;15.69;54.70
56504;BME280;48812;51.606;-0.114;2023-04-08T09:17:41;101995.25;;;15.71;54.54
56504;BME280;48812;51.606;-0.114;2023-04-08T09:25:08;101992.59;;;15.71;54.42
56504;BME280;48812;51.606;-0.114;2023-04-08T09:35:36;101989.81;;;15.74;54.73
56504;BME280;48812;51.606;-0.114;2023-04-08T09:39:12;101994.31;;;15.72;54.62
56504;BME280;48812;51.606;-0.114;2023-04-08T09:57:54;102005.72;;;15.80;55.12
56504;BME280;48812;51.606;-0.114;2023-04-08T10:00:39;102010.16;;;15.81;54.80
56504;BME280;48812;51.606;-0.114;2023-04-08T10:03:26;102017.22;;;15.82;55.12
56504;BME280;48812;51.606;-0.114;2023-04-08T10:06:03;102007.50;;;15.80;54.84
56504;BME280;48812;51.606;-0.114;2023-04-08T10:08:36;102007.41;;;15.84;54.82
56504;BME280;48812;51.606;-0.114;2023-04-08T10:11:28;102012.72;;;15.86;54.44
56504;BME280;48812;51.606;-0.114;2023-04-08T10:14:15;102010.94;;;15.86;55.03
56504;BME280;48812;51.606;-0.114;2023-04-08T10:16:47;102004.69;;;15.88;55.15
56504;BME280;48812;51.606;-0.114;2023-04-08T10:19:39;101999.25;;;15.91;54.84
56504;BME280;48812;51.606;-0.114;2023-04-08T10:27:49;102004.53;;;15.94;54.97
56504;BME280;48812;51.606;-0.114;2023-04-08T10:33:00;101996.47;;;15.97;54.75
56504;BME280;48812;51.606;-0.114;2023-04-08T10:35:44;102000.91;;;15.98;54.69
56504;BME280;48812;51.606;-0.114;2023-04-08T10:38:19;102003.56;;;15.99;54.72
56504;BME280;48812;51.606;-0.114;2023-04-08T10:41:02;101996.41;;;16.00;55.08
56504;BME280;48812;51.606;-0.114;2023-04-08T10:44:54;101990.19;;;16.01;54.72
56504;BME280;48812;51.606;-0.114;2023-04-08T10:48:20;101984.81;;;16.02;54.78
56504;BME280;48812;51.606;-0.114;2023-04-08T10:52:12;101983.88;;;16.03;54.81
56504;BME280;48812;51.606;-0.114;2023-04-08T10:56:18;101981.19;;;16.05;54.55
56504;BME280;48812;51.606;-0.114;2023-04-08T11:00:06;101983.00;;;16.04;54.16
56504;BME280;48812;51.606;-0.114;2023-04-08T11:03:31;101973.19;;;16.05;54.71
56504;BME280;48812;51.606;-0.114;2023-04-08T11:06:03;101969.63;;;16.06;54.63
56504;BME280;48812;51.606;-0.114;2023-04-08T11:08:36;101959.84;;;16.05;54.78
56504;BME280;48812;51.606;-0.114;2023-04-08T11:11:09;101963.34;;;16.07;54.64
56504;BME280;48812;51.606;-0.114;2023-04-08T11:13:44;101958.00;;;16.07;54.58
56504;BME280;48812;51.606;-0.114;2023-04-08T11:16:27;101966.91;;;16.09;54.76
56504;BME280;48812;51.606;-0.114;2023-04-08T11:19:18;101962.44;;;16.08;54.60
56504;BME280;48812;51.606;-0.114;2023-04-08T11:22:56;101957.97;;;16.09;54.85
56504;BME280;48812;51.606;-0.114;2023-04-08T11:26:05;101958.88;;;16.11;54.63
56504;BME280;48812;51.606;-0.114;2023-04-08T11:28:41;101965.06;;;16.13;54.65
56504;BME280;48812;51.606;-0.114;2023-04-08T11:31:20;101960.59;;;16.13;54.25
56504;BME280;48812;51.606;-0.114;2023-04-08T11:33:56;101970.34;;;16.14;54.21
56504;BME280;48812;51.606;-0.114;2023-04-08T11:36:30;101965.00;;;16.16;54.53
56504;BME280;48812;51.606;-0.114;2023-04-08T11:39:08;101965.00;;;16.16;54.36
56504;BME280;48812;51.606;-0.114;2023-04-08T11:41:56;101966.75;;;16.15;54.59
56504;BME280;48812;51.606;-0.114;2023-04-08T11:44:31;101966.75;;;16.15;54.82
56504;BME280;48812;51.606;-0.114;2023-04-08T11:47:04;101958.75;;;16.15;54.51
56504;BME280;48812;51.606;-0.114;2023-04-08T11:49:45;101959.69;;;16.14;54.36
56504;BME280;48812;51.606;-0.114;2023-04-08T11:52:20;101959.69;;;16.14;54.28
56504;BME280;48812;51.606;-0.114;2023-04-08T11:54:54;101965.88;;;16.15;54.55
56504;BME280;48812;51.606;-0.114;2023-04-08T11:57:27;101966.75;;;16.15;54.78
56504;BME280;48812;51.606;-0.114;2023-04-08T12:00:01;101961.41;;;16.15;54.62
56504;BME280;48812;51.606;-0.114;2023-04-08T12:02:41;101956.94;;;16.17;54.40
56504;BME280;48812;51.606;-0.114;2023-04-08T12:05:14;101938.28;;;16.17;54.39
56504;BME280;48812;51.606;-0.114;2023-04-08T12:07:48;101947.13;;;16.19;54.42
56504;BME280;48812;51.606;-0.114;2023-04-08T12:10:22;101940.88;;;16.20;54.34
56504;BME280;48812;51.606;-0.114;2023-04-08T12:12:57;101934.59;;;16.21;54.26
56504;BME280;48812;51.606;-0.114;2023-04-08T12:15:32;101946.19;;;16.22;54.24
56504;BME280;48812;51.606;-0.114;2023-04-08T12:18:07;101937.28;;;16.21;54.08
56504;BME280;48812;51.606;-0.114;2023-04-08T12:20:40;101943.50;;;16.22;54.18
56504;BME280;48812;51.606;-0.114;2023-04-08T12:23:14;101944.38;;;16.22;54.19
56504;BME280;48812;51.606;-0.114;2023-04-08T12:25:50;101952.38;;;16.22;54.35
56504;BME280;48812;51.606;-0.114;2023-04-08T12:28:25;101950.59;;;16.23;54.07
56504;BME280;48812;51.606;-0.114;2023-04-08T12:30:58;101942.63;;;16.21;54.30
56504;BME280;48812;51.606;-0.114;2023-04-08T12:33:31;101945.28;;;16.21;54.34
56504;BME280;48812;51.606;-0.114;2023-04-08T12:36:05;101941.72;;;16.22;54.43
56504;BME280;48812;51.606;-0.114;2023-04-08T12:38:38;101937.25;;;16.23;54.31
56504;BME280;48812;51.606;-0.114;2023-04-08T12:41:11;101938.97;;;16.26;53.92
56504;BME280;48812;51.606;-0.114;2023-04-08T12:43:43;101927.38;;;16.27;54.25
56504;BME280;48812;51.606;-0.114;2023-04-08T12:46:16;101924.63;;;16.30;54.26
56504;BME280;48812;51.606;-0.114;2023-04-08T12:48:50;101923.72;;;16.31;54.10
56504;BME280;48812;51.606;-0.114;2023-04-08T12:51:35;101921.00;;;16.34;54.31
56504;BME280;48812;51.606;-0.114;2023-04-08T12:54:08;101920.97;;;16.35;54.04
56504;BME280;48812;51.606;-0.114;2023-04-08T12:56:41;101919.97;;;16.38;54.14
56504;BME280;48812;51.606;-0.114;2023-04-08T12:59:16;101926.16;;;16.40;54.30
56504;BME280;48812;51.606;-0.114;2023-04-08T13:01:48;101924.34;;;16.42;54.60
56504;BME280;48812;51.606;-0.114;2023-04-08T13:04:22;101925.19;;;16.44;53.83
56504;BME280;48812;51.606;-0.114;2023-04-08T13:06:54;101922.41;;;16.49;54.16
56504;BME280;48812;51.606;-0.114;2023-04-08T13:09:28;101906.38;;;16.49;53.93
56504;BME280;48812;51.606;-0.114;2023-04-08T13:12:02;101920.53;;;16.52;53.59
56504;BME280;48812;51.606;-0.114;2023-04-08T13:14:34;101920.53;;;16.52;53.74
56504;BME280;48812;51.606;-0.114;2023-04-08T13:17:08;101920.50;;;16.54;53.92
56504;BME280;48812;51.606;-0.114;2023-04-08T13:19:41;101921.38;;;16.54;53.93
56504;BME280;48812;51.606;-0.114;2023-04-08T13:22:17;101917.78;;;16.55;53.73
56504;BME280;48812;51.606;-0.114;2023-04-08T13:24:50;101915.94;;;16.57;53.58
56504;BME280;48812;51.606;-0.114;2023-04-08T13:27:23;101905.19;;;16.61;53.73
56504;BME280;48812;51.606;-0.114;2023-04-08T13:29:58;101907.78;;;16.64;53.52
56504;BME280;48812;51.606;-0.114;2023-04-08T13:32:36;101905.94;;;16.66;53.39
56504;BME280;48812;51.606;-0.114;2023-04-08T13:35:10;101916.59;;;16.67;53.58
56504;BME280;48812;51.606;-0.114;2023-04-08T13:37:43;101910.41;;;16.67;53.41
56504;BME280;48812;51.606;-0.114;2023-04-08T13:40:16;101910.41;;;16.67;53.39
56504;BME280;48812;51.606;-0.114;2023-04-08T13:42:48;101916.59;;;16.67;53.70
56504;BME280;48812;51.606;-0.114;2023-04-08T13:45:21;101913.97;;;16.66;53.48
56504;BME280;48812;51.606;-0.114;2023-04-08T13:47:54;101909.53;;;16.65;53.95
56504;BME280;48812;51.606;-0.114;2023-04-08T13:50:29;101913.97;;;16.66;53.71
56504;BME280;48812;51.606;-0.114;2023-04-08T13:53:02;101914.00;;;16.64;53.58
56504;BME280;48812;51.606;-0.114;2023-04-08T13:55:34;101913.97;;;16.66;53.84
56504;BME280;48812;51.606;-0.114;2023-04-08T13:58:07;101910.47;;;16.64;53.42
56504;BME280;48812;51.606;-0.114;2023-04-08T14:00:52;101915.72;;;16.67;53.60
56504;BME280;48812;51.606;-0.114;2023-04-08T14:03:26;101903.22;;;16.69;53.38
56504;BME280;48812;51.606;-0.114;2023-04-08T14:05:59;101906.78;;;16.68;53.35
56504;BME280;48812;51.606;-0.114;2023-04-08T14:08:33;101905.88;;;16.69;53.49
56504;BME280;48812;51.606;-0.114;2023-04-08T14:11:05;101896.97;;;16.70;53.14
56504;BME280;48812;51.606;-0.114;2023-04-08T14:13:38;101886.19;;;16.73;53.41
56504;BME280;48812;51.606;-0.114;2023-04-08T14:16:11;101890.31;;;16.86;53.19
56504;BME280;48812;51.606;-0.114;2023-04-08T14:18:46;101890.94;;;16.96;53.36
56504;BME280;48812;51.606;-0.114;2023-04-08T14:21:22;101885.41;;;17.02;52.93
56504;BME280;48812;51.606;-0.114;2023-04-08T14:23:55;101889.72;;;17.08;52.64
56504;BME280;48812;51.606;-0.114;2023-04-08T14:26:28;101887.75;;;17.47;52.54
56504;BME280;48812;51.606;-0.114;2023-04-08T14:29:04;101886.28;;;17.95;51.62
56504;BME280;48812;51.606;-0.114;2023-04-08T14:31:46;101879.13;;;18.52;50.48
56504;BME280;48812;51.606;-0.114;2023-04-08T14:34:19;101876.75;;;18.95;50.35
56504;BME280;48812;51.606;-0.114;2023-04-08T14:36:54;101883.44;;;19.08;49.21
56504;BME280;48812;51.606;-0.114;2023-04-08T14:39:29;101883.28;;;19.11;49.13
56504;BME280;48812;51.606;-0.114;2023-04-08T14:42:02;101875.84;;;19.20;48.82
56504;BME280;48812;51.606;-0.114;2023-04-08T14:44:38;101871.91;;;19.30;49.03
56504;BME280;48812;51.606;-0.114;2023-04-08T14:47:11;101872.53;;;19.38;48.51
56504;BME280;48812;51.606;-0.114;2023-04-08T14:49:44;101871.59;;;19.39;48.13
56504;BME280;48812;51.606;-0.114;2023-04-08T14:52:17;101876.44;;;19.28;47.83